sensor_id;sensor_type;location;lat;lon;timestamp;temperature;humidity
47336;DHT22;33068;51.990;5.926;2022-08-30T00:01:03;16.30;99.90
47336;DHT22;33068;51.990;5.926;2022-08-30T00:03:32;16.20;99.90
47336;DHT22;33068;51.990;5.926;2022-08-30T00:06:01;16.20;99.90
47336;DHT22;33068;51.990;5.926;2022-08-30T00:08:31;16.10;99.90
47336;DHT22;33068;51.990;5.926;2022-08-30T00:10:58;16.10;99.90
47336;DHT22;33068;51.990;5.926;2022-08-30T00:13:26;16.10;99.90
47336;DHT22;33068;51.990;5.926;2022-08-30T00:15:53;16.10;99.90
47336;DHT22;33068;51.990;5.926;2022-08-30T00:18:22;16.10;99.90
47336;DHT22;33068;51.990;5.926;2022-08-30T00:20:50;16.10;99.90
47336;DHT22;33068;51.990;5.926;2022-08-30T00:23:18;16.10;99.90
47336;DHT22;33068;51.990;5.926;2022-08-30T00:25:46;16.00;99.90
47336;DHT22;33068;51.990;5.926;2022-08-30T00:28:14;16.00;99.90
47336;DHT22;33068;51.990;5.926;2022-08-30T00:30:41;16.00;99.90
47336;DHT22;33068;51.990;5.926;2022-08-30T00:33:10;16.00;99.90
47336;DHT22;33068;51.990;5.926;2022-08-30T00:35:38;15.90;99.90
47336;DHT22;33068;51.990;5.926;2022-08-30T00:38:06;15.90;99.90
47336;DHT22;33068;51.990;5.926;2022-08-30T00:40:34;15.90;99.90
47336;DHT22;33068;51.990;5.926;2022-08-30T00:43:05;15.90;99.90
47336;DHT22;33068;51.990;5.926;2022-08-30T00:45:35;15.90;99.90
47336;DHT22;33068;51.990;5.926;2022-08-30T00:48:03;16.00;99.90
47336;DHT22;33068;51.990;5.926;2022-08-30T00:50:34;15.80;99.90
47336;DHT22;33068;51.990;5.926;2022-08-30T00:53:07;15.80;99.90
47336;DHT22;33068;51.990;5.926;2022-08-30T00:55:35;15.70;99.90
47336;DHT22;33068;51.990;5.926;2022-08-30T00:58:04;15.70;99.90
47336;DHT22;33068;51.990;5.926;2022-08-30T01:00:34;15.70;99.90
47336;DHT22;33068;51.990;5.926;2022-08-30T01:03:03;15.60;99.90
47336;DHT22;33068;51.990;5.926;2022-08-30T01:05:30;15.60;99.90
47336;DHT22;33068;51.990;5.926;2022-08-30T01:07:57;15.60;99.90
47336;DHT22;33068;51.990;5.926;2022-08-30T01:10:26;15.50;99.90
47336;DHT22;33068;51.990;5.926;2022-08-30T01:12:53;15.60;99.90
47336;DHT22;33068;51.990;5.926;2022-08-30T01:15:20;15.60;99.90
47336;DHT22;33068;51.990;5.926;2022-08-30T01:17:48;15.50;99.90
47336;DHT22;33068;51.990;5.926;2022-08-30T01:20:20;15.60;99.90
47336;DHT22;33068;51.990;5.926;2022-08-30T01:23:06;15.50;99.90
47336;DHT22;33068;51.990;5.926;2022-08-30T01:25:34;15.50;99.90
47336;DHT22;33068;51.990;5.926;2022-08-30T01:28:05;15.50;99.90
47336;DHT22;33068;51.990;5.926;2022-08-30T01:30:34;15.50;99.90
47336;DHT22;33068;51.990;5.926;2022-08-30T01:33:04;15.50;99.90
47336;DHT22;33068;51.990;5.926;2022-08-30T01:35:47;15.50;99.90
47336;DHT22;33068;51.990;5.926;2022-08-30T01:38:17;15.50;99.90
47336;DHT22;33068;51.990;5.926;2022-08-30T01:40:45;15.50;99.90
47336;DHT22;33068;51.990;5.926;2022-08-30T01:43:15;15.50;99.90
47336;DHT22;33068;51.990;5.926;2022-08-30T01:45:44;15.50;99.90
47336;DHT22;33068;51.990;5.926;2022-08-30T01:48:11;15.50;99.90
47336;DHT22;33068;51.990;5.926;2022-08-30T01:50:40;15.50;99.90
47336;DHT22;33068;51.990;5.926;2022-08-30T01:53:07;15.50;99.90
47336;DHT22;33068;51.990;5.926;2022-08-30T01:55:36;15.50;99.90
47336;DHT22;33068;51.990;5.926;2022-08-30T01:58:08;15.50;99.90
47336;DHT22;33068;51.990;5.926;2022-08-30T02:00:35;15.40;99.90
47336;DHT22;33068;51.990;5.926;2022-08-30T02:03:03;15.40;99.90
47336;DHT22;33068;51.990;5.926;2022-08-30T02:05:31;15.40;99.90
47336;DHT22;33068;51.990;5.926;2022-08-30T02:07:59;15.40;99.90
47336;DHT22;33068;51.990;5.926;2022-08-30T02:10:26;15.30;99.90
47336;DHT22;33068;51.990;5.926;2022-08-30T02:12:55;15.30;99.90
47336;DHT22;33068;51.990;5.926;2022-08-30T02:15:22;15.30;99.90
47336;DHT22;33068;51.990;5.926;2022-08-30T02:17:49;15.20;99.90
47336;DHT22;33068;51.990;5.926;2022-08-30T02:20:17;15.30;99.90
47336;DHT22;33068;51.990;5.926;2022-08-30T02:22:44;15.20;99.90
47336;DHT22;33068;51.990;5.926;2022-08-30T02:25:12;15.20;99.90
47336;DHT22;33068;51.990;5.926;2022-08-30T02:27:39;15.20;99.90
47336;DHT22;33068;51.990;5.926;2022-08-30T02:30:09;15.10;99.90
47336;DHT22;33068;51.990;5.926;2022-08-30T02:32:37;15.20;99.90
47336;DHT22;33068;51.990;5.926;2022-08-30T02:35:05;15.20;99.90
47336;DHT22;33068;51.990;5.926;2022-08-30T02:37:32;15.10;99.90
47336;DHT22;33068;51.990;5.926;2022-08-30T02:39:59;15.10;99.90
47336;DHT22;33068;51.990;5.926;2022-08-30T02:42:26;15.00;99.90
47336;DHT22;33068;51.990;5.926;2022-08-30T02:44:54;15.10;99.90
47336;DHT22;33068;51.990;5.926;2022-08-30T02:47:23;15.00;99.90
47336;DHT22;33068;51.990;5.926;2022-08-30T02:49:50;15.00;99.90
47336;DHT22;33068;51.990;5.926;2022-08-30T02:52:17;15.00;99.90
47336;DHT22;33068;51.990;5.926;2022-08-30T02:54:45;15.00;99.90
47336;DHT22;33068;51.990;5.926;2022-08-30T02:57:12;15.00;99.90
47336;DHT22;33068;51.990;5.926;2022-08-30T02:59:39;15.00;99.90
47336;DHT22;33068;51.990;5.926;2022-08-30T03:02:09;15.00;99.90
47336;DHT22;33068;51.990;5.926;2022-08-30T03:04:38;14.90;99.90
47336;DHT22;33068;51.990;5.926;2022-08-30T03:07:05;14.90;99.90
47336;DHT22;33068;51.990;5.926;2022-08-30T03:09:33;14.90;99.90
47336;DHT22;33068;51.990;5.926;2022-08-30T03:12:00;14.90;99.90
47336;DHT22;33068;51.990;5.926;2022-08-30T03:14:27;14.80;99.90
47336;DHT22;33068;51.990;5.926;2022-08-30T03:16:54;14.90;99.90
47336;DHT22;33068;51.990;5.926;2022-08-30T03:19:21;14.80;99.90
47336;DHT22;33068;51.990;5.926;2022-08-30T03:21:51;14.90;99.90
47336;DHT22;33068;51.990;5.926;2022-08-30T03:24:18;14.80;99.90
47336;DHT22;33068;51.990;5.926;2022-08-30T03:26:46;14.90;99.90
47336;DHT22;33068;51.990;5.926;2022-08-30T03:29:13;14.90;99.90
47336;DHT22;33068;51.990;5.926;2022-08-30T03:31:40;14.90;99.90
47336;DHT22;33068;51.990;5.926;2022-08-30T03:34:07;14.80;99.90
47336;DHT22;33068;51.990;5.926;2022-08-30T03:36:35;14.80;99.90
47336;DHT22;33068;51.990;5.926;2022-08-30T03:39:05;14.90;99.90
47336;DHT22;33068;51.990;5.926;2022-08-30T03:41:32;14.80;99.90
47336;DHT22;33068;51.990;5.926;2022-08-30T03:44:02;14.80;99.90
47336;DHT22;33068;51.990;5.926;2022-08-30T03:46:30;14.80;99.90
47336;DHT22;33068;51.990;5.926;2022-08-30T03:48:57;14.70;99.90
47336;DHT22;33068;51.990;5.926;2022-08-30T03:51:26;14.70;99.90
47336;DHT22;33068;51.990;5.926;2022-08-30T03:53:54;14.70;99.90
47336;DHT22;33068;51.990;5.926;2022-08-30T03:56:22;14.60;99.90
47336;DHT22;33068;51.990;5.926;2022-08-30T03:58:50;14.60;99.90
47336;DHT22;33068;51.990;5.926;2022-08-30T04:01:17;14.60;99.90
47336;DHT22;33068;51.990;5.926;2022-08-30T04:03:47;14.60;99.90
47336;DHT22;33068;51.990;5.926;2022-08-30T04:06:15;14.60;99.90
47336;DHT22;33068;51.990;5.926;2022-08-30T04:08:42;14.60;99.90
47336;DHT22;33068;51.990;5.926;2022-08-30T04:11:13;14.60;99.90
47336;DHT22;33068;51.990;5.926;2022-08-30T04:13:45;14.70;99.90
47336;DHT22;33068;51.990;5.926;2022-08-30T04:16:16;14.60;99.90
47336;DHT22;33068;51.990;5.926;2022-08-30T04:18:51;14.60;99.90
47336;DHT22;33068;51.990;5.926;2022-08-30T04:21:18;14.60;99.90
47336;DHT22;33068;51.990;5.926;2022-08-30T04:23:45;14.60;99.90
47336;DHT22;33068;51.990;5.926;2022-08-30T04:26:12;14.60;99.90
47336;DHT22;33068;51.990;5.926;2022-08-30T04:28:40;14.60;99.90
47336;DHT22;33068;51.990;5.926;2022-08-30T04:31:10;14.60;99.90
47336;DHT22;33068;51.990;5.926;2022-08-30T04:33:37;14.60;99.90
47336;DHT22;33068;51.990;5.926;2022-08-30T04:36:06;14.60;99.90
47336;DHT22;33068;51.990;5.926;2022-08-30T04:39:01;14.70;99.90
47336;DHT22;33068;51.990;5.926;2022-08-30T04:41:41;14.70;99.90
47336;DHT22;33068;51.990;5.926;2022-08-30T04:44:08;14.70;99.90
47336;DHT22;33068;51.990;5.926;2022-08-30T04:46:37;14.70;99.90
47336;DHT22;33068;51.990;5.926;2022-08-30T04:49:04;14.60;99.90
47336;DHT22;33068;51.990;5.926;2022-08-30T04:51:31;14.70;99.90
47336;DHT22;33068;51.990;5.926;2022-08-30T04:53:59;14.70;99.90
47336;DHT22;33068;51.990;5.926;2022-08-30T04:56:26;14.70;99.90
47336;DHT22;33068;51.990;5.926;2022-08-30T04:58:54;14.80;99.90
47336;DHT22;33068;51.990;5.926;2022-08-30T05:01:23;14.90;99.90
47336;DHT22;33068;51.990;5.926;2022-08-30T05:03:53;14.90;99.90
47336;DHT22;33068;51.990;5.926;2022-08-30T05:06:21;14.90;99.90
47336;DHT22;33068;51.990;5.926;2022-08-30T05:08:51;15.00;99.90
47336;DHT22;33068;51.990;5.926;2022-08-30T05:11:21;14.90;99.90
47336;DHT22;33068;51.990;5.926;2022-08-30T05:13:48;15.00;99.90
47336;DHT22;33068;51.990;5.926;2022-08-30T05:16:16;15.00;99.90
47336;DHT22;33068;51.990;5.926;2022-08-30T05:18:45;15.00;99.90
47336;DHT22;33068;51.990;5.926;2022-08-30T05:21:16;15.20;99.90
47336;DHT22;33068;51.990;5.926;2022-08-30T05:23:43;15.20;99.90
47336;DHT22;33068;51.990;5.926;2022-08-30T05:26:13;15.20;99.90
47336;DHT22;33068;51.990;5.926;2022-08-30T05:28:41;15.10;99.90
47336;DHT22;33068;51.990;5.926;2022-08-30T05:31:14;15.30;99.90
47336;DHT22;33068;51.990;5.926;2022-08-30T05:33:42;15.30;99.90
47336;DHT22;33068;51.990;5.926;2022-08-30T05:36:09;15.40;99.90
47336;DHT22;33068;51.990;5.926;2022-08-30T05:38:38;15.40;99.90
47336;DHT22;33068;51.990;5.926;2022-08-30T05:41:05;15.40;99.90
47336;DHT22;33068;51.990;5.926;2022-08-30T05:43:33;15.40;99.90
47336;DHT22;33068;51.990;5.926;2022-08-30T05:46:02;15.40;99.90
47336;DHT22;33068;51.990;5.926;2022-08-30T05:48:30;15.50;99.90
47336;DHT22;33068;51.990;5.926;2022-08-30T05:51:02;15.60;99.90
47336;DHT22;33068;51.990;5.926;2022-08-30T05:53:29;15.60;99.90
47336;DHT22;33068;51.990;5.926;2022-08-30T05:55:59;15.90;99.90
47336;DHT22;33068;51.990;5.926;2022-08-30T05:58:27;15.70;99.90
47336;DHT22;33068;51.990;5.926;2022-08-30T06:00:54;15.80;99.90
47336;DHT22;33068;51.990;5.926;2022-08-30T06:03:21;15.90;99.90
47336;DHT22;33068;51.990;5.926;2022-08-30T06:05:48;16.00;99.90
47336;DHT22;33068;51.990;5.926;2022-08-30T06:08:19;16.00;99.90
47336;DHT22;33068;51.990;5.926;2022-08-30T06:10:46;16.20;99.90
47336;DHT22;33068;51.990;5.926;2022-08-30T06:13:15;16.20;99.90
47336;DHT22;33068;51.990;5.926;2022-08-30T06:15:42;16.40;99.90
47336;DHT22;33068;51.990;5.926;2022-08-30T06:18:12;16.50;99.90
47336;DHT22;33068;51.990;5.926;2022-08-30T06:20:40;16.50;99.90
47336;DHT22;33068;51.990;5.926;2022-08-30T06:23:08;16.60;99.90
47336;DHT22;33068;51.990;5.926;2022-08-30T06:25:36;16.70;99.90
47336;DHT22;33068;51.990;5.926;2022-08-30T06:28:04;16.80;99.90
47336;DHT22;33068;51.990;5.926;2022-08-30T06:30:33;16.80;99.90
47336;DHT22;33068;51.990;5.926;2022-08-30T06:33:01;16.90;99.90
47336;DHT22;33068;51.990;5.926;2022-08-30T06:35:31;17.00;99.90
47336;DHT22;33068;51.990;5.926;2022-08-30T06:37:58;17.00;99.90
47336;DHT22;33068;51.990;5.926;2022-08-30T06:40:25;17.10;99.90
47336;DHT22;33068;51.990;5.926;2022-08-30T06:42:53;17.20;99.90
47336;DHT22;33068;51.990;5.926;2022-08-30T06:45:20;17.20;99.90
47336;DHT22;33068;51.990;5.926;2022-08-30T06:47:49;17.30;99.90
47336;DHT22;33068;51.990;5.926;2022-08-30T06:50:16;17.30;99.90
47336;DHT22;33068;51.990;5.926;2022-08-30T06:52:44;17.30;99.90
47336;DHT22;33068;51.990;5.926;2022-08-30T06:55:14;17.30;99.90
47336;DHT22;33068;51.990;5.926;2022-08-30T06:57:41;17.40;99.90
47336;DHT22;33068;51.990;5.926;2022-08-30T07:00:11;17.40;99.90
47336;DHT22;33068;51.990;5.926;2022-08-30T07:02:39;17.30;99.90
47336;DHT22;33068;51.990;5.926;2022-08-30T07:05:08;17.30;99.90
47336;DHT22;33068;51.990;5.926;2022-08-30T07:07:36;17.40;99.90
47336;DHT22;33068;51.990;5.926;2022-08-30T07:10:06;17.50;99.90
47336;DHT22;33068;51.990;5.926;2022-08-30T07:12:34;17.40;99.90
47336;DHT22;33068;51.990;5.926;2022-08-30T07:15:02;17.50;99.90
47336;DHT22;33068;51.990;5.926;2022-08-30T07:17:30;17.50;99.90
47336;DHT22;33068;51.990;5.926;2022-08-30T07:20:16;17.70;99.90
47336;DHT22;33068;51.990;5.926;2022-08-30T07:22:43;17.70;99.90
47336;DHT22;33068;51.990;5.926;2022-08-30T07:25:10;17.80;99.90
47336;DHT22;33068;51.990;5.926;2022-08-30T07:27:38;17.90;99.90
47336;DHT22;33068;51.990;5.926;2022-08-30T07:30:08;18.00;99.90
47336;DHT22;33068;51.990;5.926;2022-08-30T07:32:35;18.00;99.90
47336;DHT22;33068;51.990;5.926;2022-08-30T07:35:03;18.10;99.90
47336;DHT22;33068;51.990;5.926;2022-08-30T07:37:32;18.10;99.90
47336;DHT22;33068;51.990;5.926;2022-08-30T07:39:59;18.20;99.90
47336;DHT22;33068;51.990;5.926;2022-08-30T07:42:26;18.20;99.90
47336;DHT22;33068;51.990;5.926;2022-08-30T07:44:54;18.30;99.90
47336;DHT22;33068;51.990;5.926;2022-08-30T07:47:21;18.40;99.90
47336;DHT22;33068;51.990;5.926;2022-08-30T07:49:48;18.40;99.90
47336;DHT22;33068;51.990;5.926;2022-08-30T07:52:15;18.40;99.90
47336;DHT22;33068;51.990;5.926;2022-08-30T07:54:44;18.40;99.90
47336;DHT22;33068;51.990;5.926;2022-08-30T07:57:11;18.50;99.90
47336;DHT22;33068;51.990;5.926;2022-08-30T07:59:38;18.60;99.90
47336;DHT22;33068;51.990;5.926;2022-08-30T08:02:06;18.60;99.90
47336;DHT22;33068;51.990;5.926;2022-08-30T08:04:33;18.70;99.90
47336;DHT22;33068;51.990;5.926;2022-08-30T08:07:01;18.80;99.90
47336;DHT22;33068;51.990;5.926;2022-08-30T08:09:28;18.90;99.90
47336;DHT22;33068;51.990;5.926;2022-08-30T08:11:59;18.90;99.90
47336;DHT22;33068;51.990;5.926;2022-08-30T08:14:27;18.90;99.90
47336;DHT22;33068;51.990;5.926;2022-08-30T08:16:54;19.10;99.90
47336;DHT22;33068;51.990;5.926;2022-08-30T08:19:21;19.20;99.90
47336;DHT22;33068;51.990;5.926;2022-08-30T08:21:48;19.30;99.90
47336;DHT22;33068;51.990;5.926;2022-08-30T08:24:19;19.40;99.90
47336;DHT22;33068;51.990;5.926;2022-08-30T08:26:46;19.50;99.00
47336;DHT22;33068;51.990;5.926;2022-08-30T08:29:15;19.60;98.30
47336;DHT22;33068;51.990;5.926;2022-08-30T08:31:42;19.70;97.70
47336;DHT22;33068;51.990;5.926;2022-08-30T08:34:12;19.80;97.20
47336;DHT22;33068;51.990;5.926;2022-08-30T08:36:39;20.00;96.40
47336;DHT22;33068;51.990;5.926;2022-08-30T08:39:08;20.80;94.90
47336;DHT22;33068;51.990;5.926;2022-08-30T08:41:43;21.10;94.40
47336;DHT22;33068;51.990;5.926;2022-08-30T08:44:26;21.30;93.60
47336;DHT22;33068;51.990;5.926;2022-08-30T08:47:01;21.50;92.90
47336;DHT22;33068;51.990;5.926;2022-08-30T08:49:34;21.70;92.30
47336;DHT22;33068;51.990;5.926;2022-08-30T08:52:03;22.00;91.90
47336;DHT22;33068;51.990;5.926;2022-08-30T08:54:53;22.10;91.00
47336;DHT22;33068;51.990;5.926;2022-08-30T08:57:24;22.10;90.40
47336;DHT22;33068;51.990;5.926;2022-08-30T08:59:52;22.20;88.40
47336;DHT22;33068;51.990;5.926;2022-08-30T09:02:23;22.20;90.10
47336;DHT22;33068;51.990;5.926;2022-08-30T09:04:54;22.20;90.30
47336;DHT22;33068;51.990;5.926;2022-08-30T09:07:23;22.30;89.30
47336;DHT22;33068;51.990;5.926;2022-08-30T09:09:51;22.40;88.60
47336;DHT22;33068;51.990;5.926;2022-08-30T09:12:18;22.40;88.60
47336;DHT22;33068;51.990;5.926;2022-08-30T09:14:48;22.40;88.40
47336;DHT22;33068;51.990;5.926;2022-08-30T09:17:20;22.10;87.90
47336;DHT22;33068;51.990;5.926;2022-08-30T09:19:57;22.20;87.80
47336;DHT22;33068;51.990;5.926;2022-08-30T09:22:30;22.20;87.70
47336;DHT22;33068;51.990;5.926;2022-08-30T09:25:01;22.30;87.50
47336;DHT22;33068;51.990;5.926;2022-08-30T09:27:32;22.30;87.80
47336;DHT22;33068;51.990;5.926;2022-08-30T09:30:05;22.30;87.60
47336;DHT22;33068;51.990;5.926;2022-08-30T09:32:36;22.50;87.60
47336;DHT22;33068;51.990;5.926;2022-08-30T09:35:08;22.50;87.80
47336;DHT22;33068;51.990;5.926;2022-08-30T09:37:38;22.70;88.10
47336;DHT22;33068;51.990;5.926;2022-08-30T09:40:12;22.90;88.40
47336;DHT22;33068;51.990;5.926;2022-08-30T09:42:41;23.10;89.30
47336;DHT22;33068;51.990;5.926;2022-08-30T09:45:29;23.40;86.10
47336;DHT22;33068;51.990;5.926;2022-08-30T09:47:58;23.30;85.50
47336;DHT22;33068;51.990;5.926;2022-08-30T09:50:26;23.40;85.40
47336;DHT22;33068;51.990;5.926;2022-08-30T09:52:59;23.50;85.60
47336;DHT22;33068;51.990;5.926;2022-08-30T09:55:51;23.40;84.80
47336;DHT22;33068;51.990;5.926;2022-08-30T09:58:26;23.30;85.70
47336;DHT22;33068;51.990;5.926;2022-08-30T10:01:06;23.20;84.10
47336;DHT22;33068;51.990;5.926;2022-08-30T10:03:41;23.50;83.40
47336;DHT22;33068;51.990;5.926;2022-08-30T10:06:17;23.50;84.10
47336;DHT22;33068;51.990;5.926;2022-08-30T10:08:56;24.00;83.80
47336;DHT22;33068;51.990;5.926;2022-08-30T10:11:26;23.90;83.60
47336;DHT22;33068;51.990;5.926;2022-08-30T10:14:20;24.10;83.00
47336;DHT22;33068;51.990;5.926;2022-08-30T10:16:58;24.40;80.50
47336;DHT22;33068;51.990;5.926;2022-08-30T10:19:41;24.50;80.80
47336;DHT22;33068;51.990;5.926;2022-08-30T10:22:42;24.70;79.20
47336;DHT22;33068;51.990;5.926;2022-08-30T10:25:16;24.50;79.90
47336;DHT22;33068;51.990;5.926;2022-08-30T10:27:48;24.60;79.30
47336;DHT22;33068;51.990;5.926;2022-08-30T10:30:18;24.90;77.90
47336;DHT22;33068;51.990;5.926;2022-08-30T10:32:52;24.90;78.40
47336;DHT22;33068;51.990;5.926;2022-08-30T10:35:24;25.00;78.90
47336;DHT22;33068;51.990;5.926;2022-08-30T10:37:57;24.90;79.40
47336;DHT22;33068;51.990;5.926;2022-08-30T10:40:30;24.70;81.30
47336;DHT22;33068;51.990;5.926;2022-08-30T10:43:21;24.60;80.30
47336;DHT22;33068;51.990;5.926;2022-08-30T10:45:52;24.80;78.40
47336;DHT22;33068;51.990;5.926;2022-08-30T10:48:25;25.00;77.40
47336;DHT22;33068;51.990;5.926;2022-08-30T10:50:58;25.00;78.00
47336;DHT22;33068;51.990;5.926;2022-08-30T10:53:33;25.10;77.60
47336;DHT22;33068;51.990;5.926;2022-08-30T10:56:07;25.10;77.50
47336;DHT22;33068;51.990;5.926;2022-08-30T10:58:40;25.10;76.00
47336;DHT22;33068;51.990;5.926;2022-08-30T11:01:35;24.90;77.90
47336;DHT22;33068;51.990;5.926;2022-08-30T11:04:32;24.70;78.30
47336;DHT22;33068;51.990;5.926;2022-08-30T11:07:13;24.60;79.20
47336;DHT22;33068;51.990;5.926;2022-08-30T11:09:53;24.80;78.40
47336;DHT22;33068;51.990;5.926;2022-08-30T11:12:32;25.10;76.70
47336;DHT22;33068;51.990;5.926;2022-08-30T11:15:14;25.20;76.50
47336;DHT22;33068;51.990;5.926;2022-08-30T11:17:46;25.30;76.70
47336;DHT22;33068;51.990;5.926;2022-08-30T11:20:34;25.20;77.60
47336;DHT22;33068;51.990;5.926;2022-08-30T11:23:24;25.20;76.60
47336;DHT22;33068;51.990;5.926;2022-08-30T11:25:53;25.10;77.60
47336;DHT22;33068;51.990;5.926;2022-08-30T11:31:33;25.20;77.80
47336;DHT22;33068;51.990;5.926;2022-08-30T11:34:02;25.50;76.90
47336;DHT22;33068;51.990;5.926;2022-08-30T11:37:02;25.60;76.70
47336;DHT22;33068;51.990;5.926;2022-08-30T11:39:55;25.70;76.80
47336;DHT22;33068;51.990;5.926;2022-08-30T11:42:31;26.10;75.40
47336;DHT22;33068;51.990;5.926;2022-08-30T11:48:06;26.20;75.90
47336;DHT22;33068;51.990;5.926;2022-08-30T11:50:44;26.10;74.60
47336;DHT22;33068;51.990;5.926;2022-08-30T11:53:23;26.10;74.50
47336;DHT22;33068;51.990;5.926;2022-08-30T11:56:02;26.30;73.90
47336;DHT22;33068;51.990;5.926;2022-08-30T11:58:44;26.30;74.00
47336;DHT22;33068;51.990;5.926;2022-08-30T12:01:20;26.50;73.50
47336;DHT22;33068;51.990;5.926;2022-08-30T12:04:06;26.70;72.80
47336;DHT22;33068;51.990;5.926;2022-08-30T12:06:49;26.90;72.30
47336;DHT22;33068;51.990;5.926;2022-08-30T12:12:52;26.80;72.60
47336;DHT22;33068;51.990;5.926;2022-08-30T12:18:22;26.50;73.00
47336;DHT22;33068;51.990;5.926;2022-08-30T12:21:23;25.90;74.10
47336;DHT22;33068;51.990;5.926;2022-08-30T12:23:56;26.10;73.10
47336;DHT22;33068;51.990;5.926;2022-08-30T12:26:33;26.50;72.40
47336;DHT22;33068;51.990;5.926;2022-08-30T12:29:12;26.80;71.60
47336;DHT22;33068;51.990;5.926;2022-08-30T12:31:42;26.80;71.00
47336;DHT22;33068;51.990;5.926;2022-08-30T12:34:18;26.80;71.10
47336;DHT22;33068;51.990;5.926;2022-08-30T12:36:56;26.80;71.20
47336;DHT22;33068;51.990;5.926;2022-08-30T12:39:26;26.60;72.10
47336;DHT22;33068;51.990;5.926;2022-08-30T12:41:55;26.70;71.60
47336;DHT22;33068;51.990;5.926;2022-08-30T12:44:26;26.40;72.40
47336;DHT22;33068;51.990;5.926;2022-08-30T12:46:59;26.30;72.40
47336;DHT22;33068;51.990;5.926;2022-08-30T12:49:30;26.60;72.00
47336;DHT22;33068;51.990;5.926;2022-08-30T12:52:16;26.80;71.60
47336;DHT22;33068;51.990;5.926;2022-08-30T12:54:45;27.20;70.60
47336;DHT22;33068;51.990;5.926;2022-08-30T12:57:12;27.50;71.00
47336;DHT22;33068;51.990;5.926;2022-08-30T12:59:52;27.40;70.00
47336;DHT22;33068;51.990;5.926;2022-08-30T13:02:21;27.50;69.70
47336;DHT22;33068;51.990;5.926;2022-08-30T13:04:49;27.60;69.00
47336;DHT22;33068;51.990;5.926;2022-08-30T13:07:30;27.60;70.40
47336;DHT22;33068;51.990;5.926;2022-08-30T13:10:08;27.50;68.50
47336;DHT22;33068;51.990;5.926;2022-08-30T13:12:39;27.50;68.30
47336;DHT22;33068;51.990;5.926;2022-08-30T13:15:17;27.50;68.50
47336;DHT22;33068;51.990;5.926;2022-08-30T13:17:45;27.20;68.40
47336;DHT22;33068;51.990;5.926;2022-08-30T13:20:24;26.70;70.70
47336;DHT22;33068;51.990;5.926;2022-08-30T13:23:04;26.40;70.60
47336;DHT22;33068;51.990;5.926;2022-08-30T13:25:34;26.60;70.40
47336;DHT22;33068;51.990;5.926;2022-08-30T13:28:04;27.00;70.80
47336;DHT22;33068;51.990;5.926;2022-08-30T13:30:34;27.20;69.00
47336;DHT22;33068;51.990;5.926;2022-08-30T13:33:01;27.40;69.10
47336;DHT22;33068;51.990;5.926;2022-08-30T13:35:28;27.50;70.60
47336;DHT22;33068;51.990;5.926;2022-08-30T13:37:57;27.50;68.40
47336;DHT22;33068;51.990;5.926;2022-08-30T13:40:25;27.80;67.90
47336;DHT22;33068;51.990;5.926;2022-08-30T13:42:52;27.80;67.70
47336;DHT22;33068;51.990;5.926;2022-08-30T13:45:20;27.40;68.00
47336;DHT22;33068;51.990;5.926;2022-08-30T13:47:49;27.30;68.20
47336;DHT22;33068;51.990;5.926;2022-08-30T13:50:17;27.20;69.00
47336;DHT22;33068;51.990;5.926;2022-08-30T13:52:45;26.90;69.00
47336;DHT22;33068;51.990;5.926;2022-08-30T13:55:12;26.80;70.00
47336;DHT22;33068;51.990;5.926;2022-08-30T13:57:39;26.90;69.50
47336;DHT22;33068;51.990;5.926;2022-08-30T14:00:10;26.90;68.70
47336;DHT22;33068;51.990;5.926;2022-08-30T14:02:39;26.90;69.70
47336;DHT22;33068;51.990;5.926;2022-08-30T14:05:09;27.30;69.30
47336;DHT22;33068;51.990;5.926;2022-08-30T14:07:36;27.50;67.90
47336;DHT22;33068;51.990;5.926;2022-08-30T14:10:04;27.70;68.10
47336;DHT22;33068;51.990;5.926;2022-08-30T14:12:34;27.60;68.40
47336;DHT22;33068;51.990;5.926;2022-08-30T14:15:02;27.50;68.40
47336;DHT22;33068;51.990;5.926;2022-08-30T14:17:29;27.30;68.80
47336;DHT22;33068;51.990;5.926;2022-08-30T14:19:57;27.60;67.60
47336;DHT22;33068;51.990;5.926;2022-08-30T14:22:26;27.70;67.70
47336;DHT22;33068;51.990;5.926;2022-08-30T14:24:54;27.80;68.00
47336;DHT22;33068;51.990;5.926;2022-08-30T14:27:21;27.30;68.00
47336;DHT22;33068;51.990;5.926;2022-08-30T14:29:49;27.00;68.90
47336;DHT22;33068;51.990;5.926;2022-08-30T14:32:22;26.60;68.80
47336;DHT22;33068;51.990;5.926;2022-08-30T14:34:51;26.30;69.50
47336;DHT22;33068;51.990;5.926;2022-08-30T14:37:18;26.20;69.70
47336;DHT22;33068;51.990;5.926;2022-08-30T14:39:47;26.00;70.00
47336;DHT22;33068;51.990;5.926;2022-08-30T14:42:14;26.00;69.60
47336;DHT22;33068;51.990;5.926;2022-08-30T14:44:41;25.90;69.30
47336;DHT22;33068;51.990;5.926;2022-08-30T14:47:08;26.20;69.50
47336;DHT22;33068;51.990;5.926;2022-08-30T14:49:36;26.40;69.70
47336;DHT22;33068;51.990;5.926;2022-08-30T14:52:03;26.70;68.50
47336;DHT22;33068;51.990;5.926;2022-08-30T14:54:31;26.70;68.50
47336;DHT22;33068;51.990;5.926;2022-08-30T14:57:00;26.90;68.00
47336;DHT22;33068;51.990;5.926;2022-08-30T14:59:30;26.90;68.80
47336;DHT22;33068;51.990;5.926;2022-08-30T15:02:15;26.70;68.80
47336;DHT22;33068;51.990;5.926;2022-08-30T15:04:48;26.90;69.10
47336;DHT22;33068;51.990;5.926;2022-08-30T15:07:16;26.20;68.80
47336;DHT22;33068;51.990;5.926;2022-08-30T15:09:43;26.20;69.60
47336;DHT22;33068;51.990;5.926;2022-08-30T15:12:12;26.20;69.00
47336;DHT22;33068;51.990;5.926;2022-08-30T15:14:39;26.50;68.60
47336;DHT22;33068;51.990;5.926;2022-08-30T15:17:06;26.70;68.10
47336;DHT22;33068;51.990;5.926;2022-08-30T15:19:34;26.80;68.20
47336;DHT22;33068;51.990;5.926;2022-08-30T15:22:03;27.00;67.10
47336;DHT22;33068;51.990;5.926;2022-08-30T15:24:39;27.20;67.10
47336;DHT22;33068;51.990;5.926;2022-08-30T15:27:12;27.30;66.90
47336;DHT22;33068;51.990;5.926;2022-08-30T15:29:42;27.30;66.30
47336;DHT22;33068;51.990;5.926;2022-08-30T15:32:09;27.20;66.90
47336;DHT22;33068;51.990;5.926;2022-08-30T15:34:36;27.50;67.30
47336;DHT22;33068;51.990;5.926;2022-08-30T15:37:03;27.50;67.20
47336;DHT22;33068;51.990;5.926;2022-08-30T15:39:31;27.30;66.90
47336;DHT22;33068;51.990;5.926;2022-08-30T15:41:58;27.20;66.50
47336;DHT22;33068;51.990;5.926;2022-08-30T15:44:26;26.90;66.90
47336;DHT22;33068;51.990;5.926;2022-08-30T15:46:54;26.90;68.10
47336;DHT22;33068;51.990;5.926;2022-08-30T15:49:22;26.90;67.60
47336;DHT22;33068;51.990;5.926;2022-08-30T15:51:50;27.00;66.60
47336;DHT22;33068;51.990;5.926;2022-08-30T15:54:20;27.00;67.90
47336;DHT22;33068;51.990;5.926;2022-08-30T15:56:48;26.50;67.20
47336;DHT22;33068;51.990;5.926;2022-08-30T15:59:23;26.50;68.40
47336;DHT22;33068;51.990;5.926;2022-08-30T16:01:52;26.60;67.30
47336;DHT22;33068;51.990;5.926;2022-08-30T16:04:19;26.70;67.60